createdAt,value
2018-06-30T00:00:18.259Z,81.09
2018-06-30T00:01:18.257Z,81.38
2018-06-30T00:02:18.253Z,81.28
2018-06-30T00:03:18.250Z,80.99
2018-06-30T00:04:18.248Z,81.09
2018-06-30T00:05:18.245Z,81.48
2018-06-30T00:06:18.242Z,81.28
2018-06-30T00:07:18.244Z,81.57
2018-06-30T00:08:18.237Z,81.92
2018-06-30T00:09:18.234Z,82.34
2018-06-30T00:10:18.266Z,81.92
2018-06-30T00:11:18.231Z,82.01
2018-06-30T00:12:18.226Z,82.20
2018-06-30T00:13:18.224Z,82.68
2018-06-30T00:14:18.221Z,82.40
2018-06-30T00:15:18.218Z,82.30
2018-06-30T00:16:18.215Z,82.87
2018-06-30T00:17:18.213Z,82.87
2018-06-30T00:18:18.209Z,82.49
2018-06-30T00:19:18.207Z,82.68
2018-06-30T00:20:18.204Z,82.97
2018-06-30T00:21:18.201Z,82.97
2018-06-30T00:22:18.198Z,83.26
2018-06-30T00:23:18.199Z,83.26
2018-06-30T00:24:18.193Z,83.36
2018-06-30T00:25:18.190Z,83.36
2018-06-30T00:26:18.188Z,83.84
2018-06-30T00:27:18.184Z,83.45
2018-06-30T00:28:18.181Z,83.26
2018-06-30T00:29:18.178Z,83.36
2018-06-30T00:30:18.175Z,83.51
2018-06-30T00:31:18.172Z,83.16
2018-06-30T00:32:18.169Z,83.70
2018-06-30T00:33:18.167Z,84.12
2018-06-30T00:34:18.167Z,83.36
2018-06-30T00:35:18.161Z,83.74
2018-06-30T00:36:18.162Z,83.45
2018-06-30T00:37:18.155Z,83.64
2018-06-30T00:38:18.169Z,83.41
2018-06-30T00:39:18.149Z,84.03
2018-06-30T00:40:18.146Z,84.03
2018-06-30T00:41:18.143Z,84.18
2018-06-30T00:42:18.140Z,83.80
2018-06-30T00:43:18.137Z,83.98
2018-06-30T00:44:18.134Z,83.89
2018-06-30T00:45:18.134Z,83.60
2018-06-30T00:46:18.127Z,83.98
2018-06-30T00:47:18.124Z,84.27
2018-06-30T00:48:18.122Z,84.47
2018-06-30T00:49:18.119Z,84.75
2018-06-30T00:50:18.116Z,84.27
2018-06-30T00:51:18.113Z,83.98
2018-06-30T00:52:18.130Z,83.98
2018-06-30T00:53:18.114Z,84.08
2018-06-30T00:54:18.103Z,83.89
2018-06-30T00:55:18.117Z,83.98
2018-06-30T00:56:18.100Z,84.75
2018-06-30T00:57:18.095Z,84.75
2018-06-30T00:58:18.091Z,84.56
2018-06-30T00:59:18.090Z,85.14
2018-06-30T01:00:18.085Z,85.42
2018-06-30T01:01:18.083Z,85.77
2018-06-30T01:02:18.078Z,85.58
2018-06-30T01:03:18.075Z,85.62
2018-06-30T01:04:18.072Z,85.38
2018-06-30T01:05:18.069Z,85.96
2018-06-30T01:06:18.065Z,85.96
2018-06-30T01:07:18.063Z,86.15
2018-06-30T01:08:18.059Z,86.44
2018-06-30T01:09:18.056Z,86.34
2018-06-30T01:10:18.052Z,85.86
2018-06-30T01:11:18.049Z,86.54
2018-06-30T01:12:18.046Z,86.34
2018-06-30T01:13:18.043Z,86.34
2018-06-30T01:14:18.039Z,86.34
2018-06-30T01:15:18.036Z,86.82
2018-06-30T01:16:18.034Z,86.15
2018-06-30T01:17:18.030Z,85.77
2018-06-30T01:18:18.026Z,86.34
2018-06-30T01:19:18.022Z,85.86
2018-06-30T01:20:18.022Z,85.77
2018-06-30T01:21:18.020Z,86.63
2018-06-30T01:22:18.012Z,86.44
2018-06-30T01:23:18.009Z,86.63
2018-06-30T01:24:18.009Z,86.25
2018-06-30T01:25:18.005Z,86.44
2018-06-30T01:26:18.002Z,86.82
2018-06-30T01:27:17.999Z,87.11
2018-06-30T01:28:17.992Z,87.16
2018-06-30T01:29:17.991Z,87.01
2018-06-30T01:30:18.187Z,87.11
2018-06-30T01:31:17.982Z,86.88
2018-06-30T01:32:17.978Z,86.58
2018-06-30T01:33:17.975Z,87.55
2018-06-30T01:34:17.975Z,87.64
2018-06-30T01:35:17.967Z,87.93
2018-06-30T01:36:17.965Z,87.93
2018-06-30T01:37:17.961Z,87.93
2018-06-30T01:38:17.956Z,87.93
2018-06-30T01:39:17.952Z,88.31
2018-06-30T01:40:17.954Z,88.27
2018-06-30T01:41:17.946Z,88.41
2018-06-30T01:42:17.941Z,88.51
2018-06-30T01:43:17.939Z,88.31
2018-06-30T01:44:17.934Z,88.60
2018-06-30T01:45:17.934Z,88.70
2018-06-30T01:46:17.926Z,88.31
2018-06-30T01:47:17.923Z,88.60
2018-06-30T01:48:17.920Z,88.65
2018-06-30T01:49:17.924Z,88.56
2018-06-30T01:50:17.916Z,88.65
2018-06-30T01:51:17.908Z,89.23
2018-06-30T01:52:18.107Z,89.13
2018-06-30T01:53:17.904Z,89.04
2018-06-30T01:54:17.899Z,88.94
2018-06-30T01:55:17.893Z,88.94
2018-06-30T01:56:17.889Z,89.13
2018-06-30T01:57:17.889Z,88.84
2018-06-30T01:58:17.880Z,89.71
2018-06-30T01:59:17.882Z,89.13
2018-06-30T02:00:17.874Z,89.32
2018-06-30T02:01:17.873Z,89.42
2018-06-30T02:02:17.866Z,89.71
2018-06-30T02:03:17.862Z,89.80
2018-06-30T02:04:17.858Z,89.80
2018-06-30T02:05:17.859Z,90.00
2018-06-30T02:06:17.850Z,89.71
2018-06-30T02:07:17.847Z,90.00
2018-06-30T02:08:17.842Z,90.09
2018-06-30T02:09:17.845Z,90.00
2018-06-30T02:10:17.835Z,90.47
2018-06-30T02:11:17.839Z,90.72
2018-06-30T02:12:17.826Z,90.53
2018-06-30T02:13:17.822Z,90.62
2018-06-30T02:14:17.818Z,90.53
2018-06-30T02:15:17.814Z,90.43
2018-06-30T02:16:17.810Z,90.62
2018-06-30T02:17:17.806Z,90.81
2018-06-30T02:18:17.801Z,90.62
2018-06-30T02:19:17.798Z,90.72
2018-06-30T02:20:17.793Z,90.53
2018-06-30T02:21:17.790Z,89.95
2018-06-30T02:22:17.785Z,90.62
2018-06-30T02:23:17.782Z,90.62
2018-06-30T02:24:17.779Z,91.10
2018-06-30T02:25:17.775Z,90.53
2018-06-30T02:26:17.769Z,90.53
2018-06-30T02:27:17.765Z,90.53
2018-06-30T02:28:17.813Z,90.33
2018-06-30T02:29:17.757Z,91.10
2018-06-30T02:30:17.752Z,90.53
2018-06-30T02:31:17.751Z,90.53
2018-06-30T02:32:17.745Z,90.81
2018-06-30T02:33:17.745Z,89.95
2018-06-30T02:34:17.738Z,90.53
2018-06-30T02:35:17.732Z,90.62
2018-06-30T02:36:17.728Z,90.62
2018-06-30T02:37:17.724Z,90.81
2018-06-30T02:38:17.718Z,90.91
2018-06-30T02:39:17.715Z,90.81
2018-06-30T02:40:17.710Z,90.62
2018-06-30T02:41:17.707Z,90.58
2018-06-30T02:42:17.702Z,90.81
2018-06-30T02:43:17.697Z,90.53
2018-06-30T02:44:17.693Z,90.62
2018-06-30T02:45:17.690Z,90.77
2018-06-30T02:46:17.684Z,90.81
2018-06-30T02:47:17.886Z,90.62
2018-06-30T02:48:17.676Z,90.43
2018-06-30T02:49:17.672Z,90.67
2018-06-30T02:50:17.668Z,91.19
2018-06-30T02:51:17.663Z,91.10
2018-06-30T02:52:17.659Z,91.25
2018-06-30T02:53:17.661Z,90.77
2018-06-30T02:54:17.649Z,91.10
2018-06-30T02:55:17.648Z,90.86
2018-06-30T02:56:17.642Z,91.05
2018-06-30T02:57:17.642Z,91.63
2018-06-30T02:58:17.635Z,91.72
2018-06-30T02:59:17.627Z,91.63
2018-06-30T03:00:17.624Z,91.53
2018-06-30T03:01:17.822Z,90.96
2018-06-30T03:02:17.614Z,91.53
2018-06-30T03:03:17.611Z,90.96
2018-06-30T03:04:17.607Z,91.44
2018-06-30T03:05:17.602Z,91.72
2018-06-30T03:06:17.597Z,91.34
2018-06-30T03:07:17.797Z,91.25
2018-06-30T03:08:17.592Z,91.34
2018-06-30T03:09:17.585Z,91.34
2018-06-30T03:10:17.581Z,91.34
2018-06-30T03:11:17.581Z,91.63
2018-06-30T03:12:17.572Z,91.34
2018-06-30T03:13:17.568Z,91.53
2018-06-30T03:14:17.562Z,91.34
2018-06-30T03:15:17.558Z,91.25
2018-06-30T03:16:17.555Z,91.25
2018-06-30T03:17:17.551Z,91.63
2018-06-30T03:18:17.547Z,91.53
2018-06-30T03:19:17.546Z,91.63
2018-06-30T03:20:17.537Z,91.53
2018-06-30T03:21:17.537Z,91.53
2018-06-30T03:22:17.527Z,91.63
2018-06-30T03:23:17.524Z,91.44
2018-06-30T03:24:17.519Z,91.53
2018-06-30T03:25:17.514Z,91.34
2018-06-30T03:26:17.512Z,91.34
2018-06-30T03:27:17.505Z,91.44
2018-06-30T03:28:17.505Z,91.25
2018-06-30T03:29:17.497Z,91.63
2018-06-30T03:30:17.491Z,91.53
2018-06-30T03:31:17.489Z,91.82
2018-06-30T03:32:17.488Z,91.82
2018-06-30T03:33:17.478Z,91.72
2018-06-30T03:34:17.475Z,92.21
2018-06-30T03:35:17.469Z,92.01
2018-06-30T03:36:17.468Z,92.21
2018-06-30T03:37:17.464Z,92.40
2018-06-30T03:39:17.451Z,92.40
2018-06-30T03:40:17.453Z,92.01
2018-06-30T03:41:17.443Z,93.26
2018-06-30T03:42:17.440Z,92.40
2018-06-30T03:43:17.436Z,92.87
2018-06-30T03:44:17.430Z,92.87
2018-06-30T03:45:17.425Z,92.87
2018-06-30T03:46:17.495Z,92.87
2018-06-30T03:47:17.419Z,92.11
2018-06-30T03:48:17.411Z,92.58
2018-06-30T03:49:17.410Z,92.49
2018-06-30T03:50:17.402Z,93.26
2018-06-30T03:51:17.399Z,92.78
2018-06-30T03:52:17.395Z,92.87
2018-06-30T03:53:17.393Z,93.07
2018-06-30T03:54:17.383Z,92.97
2018-06-30T03:55:17.379Z,93.07
2018-06-30T03:56:17.375Z,92.78
2018-06-30T03:57:17.370Z,92.97
2018-06-30T03:58:17.368Z,92.87
2018-06-30T03:59:17.362Z,92.87
2018-06-30T04:00:17.356Z,92.68
2018-06-30T04:01:17.352Z,92.78
2018-06-30T04:02:17.347Z,92.68
2018-06-30T04:03:17.345Z,92.97
2018-06-30T04:04:17.338Z,93.07
2018-06-30T04:05:17.337Z,92.78
2018-06-30T04:06:17.329Z,92.68
2018-06-30T04:07:17.327Z,93.07
2018-06-30T04:08:17.324Z,92.87
2018-06-30T04:09:17.321Z,92.87
2018-06-30T04:10:17.310Z,93.07
2018-06-30T04:11:17.306Z,92.97
2018-06-30T04:12:17.302Z,92.58
2018-06-30T04:13:17.297Z,92.97
2018-06-30T04:14:17.294Z,92.97
2018-06-30T04:15:17.292Z,92.97
2018-06-30T04:16:17.288Z,92.49
2018-06-30T04:17:17.281Z,92.87
2018-06-30T04:18:17.274Z,92.78
2018-06-30T04:19:17.272Z,93.16
2018-06-30T04:20:17.269Z,92.87
2018-06-30T04:21:17.262Z,92.78
2018-06-30T04:22:17.257Z,93.26
2018-06-30T04:23:17.254Z,92.11
2018-06-30T04:24:17.253Z,92.35
2018-06-30T04:25:17.248Z,92.87
2018-06-30T04:26:17.239Z,93.07
2018-06-30T04:27:17.235Z,92.97
2018-06-30T04:28:17.232Z,93.02
2018-06-30T04:29:17.227Z,92.82
2018-06-30T04:30:17.222Z,93.02
2018-06-30T04:31:17.219Z,92.82
2018-06-30T04:32:17.214Z,92.82
2018-06-30T04:33:17.210Z,92.15
2018-06-30T04:34:17.205Z,92.54
2018-06-30T04:35:17.200Z,91.96
2018-06-30T04:36:17.197Z,91.96
2018-06-30T04:37:17.193Z,91.86
2018-06-30T04:38:17.187Z,91.86
2018-06-30T04:39:17.190Z,91.58
2018-06-30T04:40:17.382Z,91.77
2018-06-30T04:41:17.176Z,91.58
2018-06-30T04:42:17.172Z,91.77
2018-06-30T04:43:17.178Z,91.86
2018-06-30T04:44:17.277Z,91.67
2018-06-30T04:45:17.181Z,92.06
2018-06-30T04:46:17.154Z,92.06
2018-06-30T04:47:17.150Z,91.39
2018-06-30T04:48:17.146Z,91.19
2018-06-30T04:49:17.143Z,91.10
2018-06-30T04:50:17.339Z,91.05
2018-06-30T04:51:17.134Z,91.58
2018-06-30T04:52:17.130Z,91.58
2018-06-30T04:53:17.329Z,91.14
2018-06-30T04:54:17.122Z,91.53
2018-06-30T04:55:17.117Z,91.63
2018-06-30T04:56:17.119Z,91.72
2018-06-30T04:57:17.114Z,91.72
2018-06-30T04:58:17.108Z,91.14
2018-06-30T04:59:17.104Z,90.76
2018-06-30T05:00:17.103Z,89.90
2018-06-30T05:01:17.100Z,90.76
2018-06-30T05:02:17.092Z,90.57
2018-06-30T05:03:17.089Z,90.57
2018-06-30T05:04:17.087Z,89.71
2018-06-30T05:05:17.080Z,90.47
2018-06-30T05:06:17.075Z,90.38
2018-06-30T05:07:17.072Z,90.52
2018-06-30T05:08:17.066Z,90.90
2018-06-30T05:09:17.067Z,90.52
2018-06-30T05:10:17.059Z,90.47
2018-06-30T05:11:17.056Z,89.80
2018-06-30T05:12:17.052Z,90.81
2018-06-30T05:13:17.049Z,90.52
2018-06-30T05:14:17.246Z,89.75
2018-06-30T05:15:17.249Z,89.47
2018-06-30T05:16:17.037Z,89.75
2018-06-30T05:17:17.034Z,89.75
2018-06-30T05:18:17.030Z,89.65
2018-06-30T05:19:17.026Z,89.27
2018-06-30T05:20:17.023Z,89.61
2018-06-30T05:21:17.020Z,88.98
2018-06-30T05:22:17.015Z,88.98
2018-06-30T05:23:17.012Z,89.41
2018-06-30T05:24:17.014Z,89.70
2018-06-30T05:25:17.008Z,89.79
2018-06-30T05:26:17.013Z,89.61
2018-06-30T05:27:16.999Z,89.99
2018-06-30T05:28:16.996Z,89.70
2018-06-30T05:29:16.994Z,89.61
2018-06-30T05:30:16.990Z,89.03
2018-06-30T05:31:16.985Z,89.03
2018-06-30T05:32:16.987Z,88.98
2018-06-30T05:33:17.004Z,89.17
2018-06-30T05:35:16.975Z,88.98
2018-06-30T05:36:16.969Z,88.69
2018-06-30T05:37:16.970Z,88.79
2018-06-30T05:38:16.962Z,88.31
2018-06-30T05:39:16.959Z,88.59
2018-06-30T05:40:16.963Z,87.82
2018-06-30T05:41:17.053Z,88.02
2018-06-30T05:42:16.951Z,88.21
2018-06-30T05:43:16.952Z,88.49
2018-06-30T05:44:16.944Z,88.59
2018-06-30T05:45:16.941Z,88.69
2018-06-30T05:46:16.938Z,88.59
2018-06-30T05:47:16.938Z,89.07
2018-06-30T05:48:16.937Z,89.26
2018-06-30T05:49:16.934Z,89.07
2018-06-30T05:50:16.925Z,89.17
2018-06-30T05:51:16.926Z,88.98
2018-06-30T05:52:16.919Z,88.88
2018-06-30T05:53:16.963Z,88.98
2018-06-30T05:54:16.914Z,88.54
2018-06-30T05:55:16.916Z,88.25
2018-06-30T05:56:16.911Z,87.96
2018-06-30T05:57:16.906Z,88.35
2018-06-30T05:58:16.907Z,88.64
2018-06-30T05:59:16.925Z,87.96
2018-06-30T06:00:16.897Z,87.19
2018-06-30T06:01:16.893Z,87.01
2018-06-30T06:02:16.891Z,86.91
2018-06-30T06:03:16.886Z,87.10
2018-06-30T06:04:16.882Z,86.81
2018-06-30T06:05:16.880Z,86.24
2018-06-30T06:06:16.877Z,86.62
2018-06-30T06:07:16.874Z,87.29
2018-06-30T06:08:16.876Z,86.76
2018-06-30T06:09:16.873Z,87.53
2018-06-30T06:10:16.869Z,86.76
2018-06-30T06:11:16.866Z,87.24
2018-06-30T06:12:16.861Z,85.99
2018-06-30T06:13:16.860Z,86.76
2018-06-30T06:14:16.860Z,86.47
2018-06-30T06:15:16.858Z,86.76
2018-06-30T06:16:16.852Z,86.66
2018-06-30T06:17:16.848Z,85.94
2018-06-30T06:18:16.845Z,86.66
2018-06-30T06:19:16.842Z,85.75
2018-06-30T06:20:16.841Z,86.61
2018-06-30T06:21:16.909Z,86.13
2018-06-30T06:22:16.835Z,85.75
2018-06-30T06:23:16.833Z,85.55
2018-06-30T06:24:16.830Z,86.42
2018-06-30T06:25:16.828Z,86.04
2018-06-30T06:26:16.825Z,85.94
2018-06-30T06:27:16.824Z,85.46
2018-06-30T06:28:16.821Z,86.04
2018-06-30T06:29:16.825Z,85.75
2018-06-30T06:30:16.821Z,85.55
2018-06-30T06:31:16.817Z,85.36
2018-06-30T06:32:16.816Z,85.17
2018-06-30T06:33:16.810Z,85.02
2018-06-30T06:34:16.807Z,85.21
2018-06-30T06:35:16.805Z,85.31
2018-06-30T06:36:16.805Z,84.34
2018-06-30T06:37:16.801Z,84.83
2018-06-30T06:38:16.799Z,83.67
2018-06-30T06:39:16.797Z,83.77
2018-06-30T06:40:16.799Z,83.42
2018-06-30T06:41:16.794Z,84.29
2018-06-30T06:42:16.798Z,83.72
2018-06-30T06:43:16.789Z,83.72
2018-06-30T06:44:16.790Z,84.10
2018-06-30T06:45:16.786Z,83.72
2018-06-30T06:46:16.783Z,83.28
2018-06-30T06:47:16.782Z,82.79
2018-06-30T06:48:16.780Z,82.70
2018-06-30T06:49:16.779Z,81.63
2018-06-30T06:50:16.780Z,81.93
2018-06-30T06:51:16.775Z,82.02
2018-06-30T06:52:16.774Z,81.54
2018-06-30T06:53:16.772Z,82.26
2018-06-30T06:54:16.773Z,81.48
2018-06-30T06:55:16.770Z,81.01
2018-06-30T06:56:16.800Z,80.33
2018-06-30T06:57:16.767Z,80.14
2018-06-30T06:58:16.766Z,79.75
2018-06-30T06:59:16.766Z,80.27
2018-06-30T07:00:16.777Z,79.98
2018-06-30T07:01:16.763Z,79.41
2018-06-30T07:02:16.763Z,80.08
2018-06-30T07:03:16.963Z,80.02
2018-06-30T07:04:16.792Z,78.83
2018-06-30T07:05:16.764Z,79.16
2018-06-30T07:06:16.757Z,79.35
2018-06-30T07:07:16.760Z,78.96
2018-06-30T07:08:16.763Z,77.03
2018-06-30T07:09:16.758Z,77.42
2018-06-30T07:10:16.754Z,76.59
2018-06-30T07:12:16.754Z,77.17
2018-06-30T07:13:16.754Z,76.10
2018-06-30T07:15:16.960Z,74.51
2018-06-30T07:16:16.755Z,75.47
2018-06-30T07:17:16.756Z,74.99
2018-06-30T07:18:16.957Z,74.51
2018-06-30T07:19:16.810Z,74.60
2018-06-30T07:20:16.762Z,74.31
2018-06-30T07:21:16.759Z,73.86
2018-06-30T07:22:16.761Z,72.67
2018-06-30T07:23:16.964Z,72.77
2018-06-30T07:24:16.764Z,73.38
2018-06-30T07:25:16.767Z,73.58
2018-06-30T07:26:16.769Z,73.67
2018-06-30T07:27:16.773Z,72.94
2018-06-30T07:28:16.773Z,72.16
2018-06-30T07:29:16.980Z,72.36
2018-06-30T07:30:16.795Z,71.00
2018-06-30T07:31:16.895Z,71.58
2018-06-30T07:32:16.787Z,71.58
2018-06-30T07:33:16.808Z,71.00
2018-06-30T07:34:16.789Z,71.48
2018-06-30T07:35:16.792Z,71.81
2018-06-30T07:36:16.795Z,71.52
2018-06-30T07:37:16.807Z,70.84
2018-06-30T07:38:16.806Z,71.52
2018-06-30T07:39:16.805Z,70.36
2018-06-30T07:40:16.810Z,70.07
2018-06-30T07:41:16.822Z,70.20
2018-06-30T07:42:16.819Z,70.10
2018-06-30T07:43:16.852Z,68.27
2018-06-30T07:44:17.032Z,67.82
2018-06-30T07:45:16.837Z,66.56
2018-06-30T07:46:16.846Z,66.88
2018-06-30T07:47:16.854Z,66.02
2018-06-30T07:48:16.870Z,65.43
2018-06-30T07:49:16.867Z,65.47
2018-06-30T07:50:16.919Z,65.95
2018-06-30T07:51:16.882Z,64.20
2018-06-30T07:52:16.893Z,65.20
2018-06-30T07:53:16.904Z,63.95
2018-06-30T07:54:16.910Z,62.59
2018-06-30T07:55:16.921Z,63.46
2018-06-30T07:56:16.931Z,64.07
2018-06-30T07:57:16.940Z,62.62
2018-06-30T07:58:16.951Z,63.20
2018-06-30T07:59:16.961Z,61.46
2018-06-30T08:00:16.975Z,60.88
2018-06-30T08:01:16.982Z,62.62
2018-06-30T08:02:16.993Z,62.43
2018-06-30T08:03:17.004Z,61.07
2018-06-30T08:04:17.018Z,61.29
2018-06-30T08:05:17.031Z,61.52
2018-06-30T08:06:17.045Z,60.64
2018-06-30T08:07:17.082Z,59.48
2018-06-30T08:08:17.065Z,60.06
2018-06-30T08:09:17.076Z,59.26
2018-06-30T08:10:17.087Z,60.52
2018-06-30T08:11:17.103Z,60.64
2018-06-30T08:12:17.113Z,61.04
2018-06-30T08:13:17.133Z,59.87
2018-06-30T08:14:17.137Z,60.58
2018-06-30T08:15:17.149Z,59.80
2018-06-30T08:16:17.162Z,59.90
2018-06-30T08:17:17.181Z,58.25
2018-06-30T08:18:17.392Z,59.51
2018-06-30T08:19:17.210Z,58.67
2018-06-30T08:20:17.214Z,57.79
2018-06-30T08:21:17.341Z,58.57
2018-06-30T08:22:17.240Z,58.47
2018-06-30T08:23:17.456Z,58.31
2018-06-30T08:24:17.267Z,58.40
2018-06-30T08:25:17.281Z,57.53
2018-06-30T08:26:17.299Z,56.56
2018-06-30T08:27:17.307Z,56.34
2018-06-30T08:28:17.323Z,57.21
2018-06-30T08:29:17.335Z,58.40
2018-06-30T08:30:17.348Z,58.11
2018-06-30T08:31:17.362Z,57.43
2018-06-30T08:32:17.377Z,57.04
2018-06-30T08:33:17.392Z,58.11
2018-06-30T08:34:17.405Z,57.04
2018-06-30T08:35:17.419Z,56.26
2018-06-30T08:36:17.507Z,56.65
2018-06-30T08:37:17.448Z,57.33
2018-06-30T08:38:17.462Z,57.43
2018-06-30T08:40:17.497Z,55.49
2018-06-30T08:41:17.509Z,56.07
2018-06-30T08:42:17.526Z,57.23
2018-06-30T08:43:17.536Z,55.58
2018-06-30T08:44:17.555Z,56.26
2018-06-30T08:45:17.570Z,58.01
2018-06-30T08:46:17.580Z,56.46
2018-06-30T08:47:17.598Z,57.26
2018-06-30T08:48:17.610Z,55.05
2018-06-30T08:49:17.625Z,56.54
2018-06-30T08:50:17.640Z,55.18
2018-06-30T08:51:17.659Z,53.14
2018-06-30T08:52:17.675Z,54.21
2018-06-30T08:53:17.691Z,53.65
2018-06-30T08:54:17.710Z,55.21
2018-06-30T08:55:17.976Z,53.85
2018-06-30T08:56:17.733Z,54.43
2018-06-30T08:57:17.952Z,53.94
2018-06-30T08:58:17.766Z,52.67
2018-06-30T08:59:17.785Z,53.72
2018-06-30T09:00:17.796Z,54.79
2018-06-30T09:01:17.812Z,54.30
2018-06-30T09:02:17.831Z,53.85
2018-06-30T09:03:17.843Z,53.55
2018-06-30T09:04:17.865Z,53.38
2018-06-30T09:05:17.879Z,53.19
2018-06-30T09:07:17.910Z,53.58
2018-06-30T09:08:17.925Z,53.16
2018-06-30T09:09:17.941Z,52.28
2018-06-30T09:10:17.965Z,54.62
2018-06-30T09:11:17.973Z,55.52
2018-06-30T09:12:18.018Z,54.65
2018-06-30T09:13:18.009Z,54.68
2018-06-30T09:14:18.023Z,51.56
2018-06-30T09:15:18.040Z,51.85
2018-06-30T09:16:18.164Z,52.04
2018-06-30T09:17:18.079Z,51.36
2018-06-30T09:18:18.089Z,52.73
2018-06-30T09:19:18.108Z,52.36
2018-06-30T09:20:18.196Z,52.85
2018-06-30T09:21:18.141Z,51.61
2018-06-30T09:22:18.162Z,51.04
2018-06-30T09:23:18.174Z,49.88
2018-06-30T09:24:18.399Z,49.51
2018-06-30T09:25:18.212Z,48.34
2018-06-30T09:26:18.433Z,49.41
2018-06-30T09:27:18.246Z,49.41
2018-06-30T09:28:18.261Z,48.85
2018-06-30T09:29:18.288Z,49.90
2018-06-30T09:30:18.296Z,49.61
2018-06-30T09:31:18.313Z,48.54
2018-06-30T09:32:18.331Z,46.70
2018-06-30T09:33:18.350Z,48.38
2018-06-30T09:34:18.366Z,46.48
2018-06-30T09:35:18.388Z,48.32
2018-06-30T09:36:18.403Z,47.83
2018-06-30T09:37:18.424Z,49.00
2018-06-30T09:38:18.440Z,47.73
2018-06-30T09:39:18.456Z,50.46
2018-06-30T09:40:18.476Z,48.02
2018-06-30T09:41:18.492Z,48.14
2018-06-30T09:42:18.513Z,46.88
2018-06-30T09:43:18.527Z,48.34
2018-06-30T09:44:18.612Z,46.50
2018-06-30T09:45:18.564Z,47.46
2018-06-30T09:46:18.581Z,48.34
2018-06-30T09:47:18.603Z,47.66
2018-06-30T09:48:18.622Z,47.27
2018-06-30T09:49:18.637Z,48.83
2018-06-30T09:50:18.655Z,46.97
2018-06-30T09:51:18.673Z,48.16
2018-06-30T09:52:18.700Z,46.89
2018-06-30T09:53:18.711Z,48.48
2018-06-30T09:54:18.729Z,48.38
2018-06-30T09:55:18.755Z,47.72
2018-06-30T09:56:18.970Z,47.16
2018-06-30T09:57:18.784Z,44.23
2018-06-30T09:58:18.804Z,46.28
2018-06-30T09:59:18.823Z,44.23
2018-06-30T10:00:18.842Z,45.52
2018-06-30T10:01:18.862Z,44.71
2018-06-30T10:02:18.883Z,43.34
2018-06-30T10:03:18.896Z,42.95
2018-06-30T10:04:18.918Z,43.54
2018-06-30T10:05:18.938Z,45.42
2018-06-30T10:06:18.953Z,42.36
2018-06-30T10:07:18.971Z,42.74
2018-06-30T10:08:18.991Z,44.49
2018-06-30T10:09:19.013Z,44.23
2018-06-30T10:10:19.028Z,44.52
2018-06-30T10:11:19.047Z,43.54
2018-06-30T10:12:19.069Z,44.10
2018-06-30T10:13:19.089Z,44.01
2018-06-30T10:14:19.106Z,45.37
2018-06-30T10:15:19.126Z,44.52
2018-06-30T10:16:19.148Z,44.03
2018-06-30T10:17:19.163Z,42.85
2018-06-30T10:18:19.186Z,43.37
2018-06-30T10:19:19.263Z,43.27
2018-06-30T10:20:19.224Z,42.58
2018-06-30T10:21:19.305Z,42.88
2018-06-30T10:22:19.263Z,44.05
2018-06-30T10:23:19.283Z,42.88
2018-06-30T10:24:19.298Z,42.85
2018-06-30T10:25:19.321Z,43.24
2018-06-30T10:26:19.340Z,43.46
2018-06-30T10:27:19.358Z,43.27
2018-06-30T10:28:19.375Z,43.98
2018-06-30T10:29:19.395Z,42.43
2018-06-30T10:30:19.417Z,43.33
2018-06-30T10:31:19.446Z,39.31
2018-06-30T10:32:19.453Z,41.45
2018-06-30T10:33:19.473Z,41.72
2018-06-30T10:34:19.494Z,42.23
2018-06-30T10:35:19.513Z,37.33
2018-06-30T10:36:19.532Z,36.82
2018-06-30T10:37:19.558Z,37.31
2018-06-30T10:38:19.574Z,36.79
2018-06-30T10:39:19.592Z,39.62
2018-06-30T10:40:19.613Z,38.45
2018-06-30T10:41:19.630Z,41.39
2018-06-30T10:42:19.669Z,38.92
2018-06-30T10:43:19.664Z,40.41
2018-06-30T10:44:19.685Z,41.33
2018-06-30T10:45:19.706Z,40.37
2018-06-30T10:46:19.720Z,39.70
2018-06-30T10:47:19.739Z,38.13
2018-06-30T10:48:19.760Z,41.17
2018-06-30T10:49:19.778Z,38.13
2018-06-30T10:50:19.796Z,37.96
2018-06-30T10:51:19.819Z,36.19
2018-06-30T10:52:19.841Z,37.66
2018-06-30T10:53:19.861Z,37.38
2018-06-30T10:54:19.882Z,37.48
2018-06-30T10:55:19.905Z,35.72
2018-06-30T10:56:19.915Z,37.56
2018-06-30T10:57:19.936Z,37.15
2018-06-30T10:58:19.953Z,37.54
2018-06-30T10:59:19.973Z,39.72
2018-06-30T11:00:20.126Z,38.46
2018-06-30T11:01:20.215Z,36.01
2018-06-30T11:02:20.033Z,33.36
2018-06-30T11:03:20.056Z,36.88
2018-06-30T11:04:20.209Z,37.46
2018-06-30T11:05:20.101Z,38.23
2018-06-30T11:06:20.111Z,38.17
2018-06-30T11:07:20.131Z,36.21
2018-06-30T11:08:20.150Z,33.15
2018-06-30T11:09:20.169Z,33.92
2018-06-30T11:10:20.393Z,32.84
2018-06-30T11:11:20.207Z,34.49
2018-06-30T11:12:20.227Z,38.04
2018-06-30T11:13:20.246Z,36.47
2018-06-30T11:14:20.268Z,34.41
2018-06-30T11:15:20.484Z,35.58
2018-06-30T11:16:20.301Z,36.96
2018-06-30T11:17:20.320Z,35.70
2018-06-30T11:18:20.338Z,33.64
2018-06-30T11:19:20.361Z,33.54
2018-06-30T11:20:20.377Z,34.13
2018-06-30T11:21:20.394Z,34.54
2018-06-30T11:22:20.668Z,35.34
2018-06-30T11:23:20.431Z,37.48
2018-06-30T11:24:20.450Z,37.98
2018-06-30T11:25:20.469Z,38.48
2018-06-30T11:26:20.488Z,37.07
2018-06-30T11:27:20.507Z,36.68
2018-06-30T11:28:20.527Z,37.98
2018-06-30T11:29:20.549Z,37.46
2018-06-30T11:30:20.569Z,37.84
2018-06-30T11:31:20.584Z,40.11
2018-06-30T11:32:20.603Z,40.82
2018-06-30T11:33:20.622Z,38.09
2018-06-30T11:34:20.641Z,36.93
2018-06-30T11:35:20.663Z,36.05
2018-06-30T11:37:20.700Z,35.46
2018-06-30T11:38:20.725Z,36.19
2018-06-30T11:39:20.742Z,37.48
2018-06-30T11:40:20.758Z,37.54
2018-06-30T11:41:20.779Z,38.15
2018-06-30T11:42:20.796Z,37.48
2018-06-30T11:43:20.822Z,35.82
2018-06-30T11:44:20.836Z,37.80
2018-06-30T11:45:20.864Z,33.87
2018-06-30T11:46:20.876Z,33.58
2018-06-30T11:47:20.900Z,34.46
2018-06-30T11:48:20.912Z,34.16
2018-06-30T11:49:21.138Z,35.74
2018-06-30T11:50:20.974Z,34.56
2018-06-30T11:51:20.969Z,35.64
2018-06-30T11:52:20.988Z,35.24
2018-06-30T11:53:21.008Z,37.82
2018-06-30T11:54:21.029Z,34.67
2018-06-30T11:55:21.046Z,35.66
2018-06-30T11:56:21.064Z,32.21
2018-06-30T11:58:21.101Z,33.48
2018-06-30T11:59:21.125Z,35.24
2018-06-30T12:00:21.141Z,37.52
2018-06-30T12:01:21.161Z,37.62
2018-06-30T12:02:21.177Z,36.44
2018-06-30T12:03:21.233Z,36.07
2018-06-30T12:04:21.215Z,35.64
2018-06-30T12:05:21.234Z,37.13
2018-06-30T12:06:21.254Z,36.15
2018-06-30T12:07:21.473Z,35.36
2018-06-30T12:08:21.290Z,36.16
2018-06-30T12:09:21.397Z,34.58
2018-06-30T12:10:21.330Z,33.91
2018-06-30T12:11:21.346Z,33.41
2018-06-30T12:12:21.369Z,33.41
2018-06-30T12:13:21.383Z,34.70
2018-06-30T12:14:21.404Z,32.07
2018-06-30T12:15:21.625Z,32.17
2018-06-30T12:16:21.445Z,30.87
2018-06-30T12:17:21.459Z,30.76
2018-06-30T12:18:21.476Z,33.80
2018-06-30T12:19:21.497Z,33.98
2018-06-30T12:20:21.513Z,33.59
2018-06-30T12:21:21.532Z,33.38
2018-06-30T12:22:21.553Z,34.83
2018-06-30T12:23:21.567Z,34.74
2018-06-30T12:24:21.585Z,36.72
2018-06-30T12:25:21.608Z,34.38
2018-06-30T12:26:21.625Z,34.38
2018-06-30T12:27:21.841Z,35.38
2018-06-30T12:28:21.658Z,34.00
2018-06-30T12:29:21.676Z,33.72
2018-06-30T12:30:21.703Z,36.08
2018-06-30T12:31:21.714Z,33.54
2018-06-30T12:32:21.810Z,33.46
2018-06-30T12:33:21.950Z,33.95
2018-06-30T12:34:21.771Z,32.10
2018-06-30T12:35:21.783Z,32.26
2018-06-30T12:36:21.808Z,33.53
2018-06-30T12:37:21.819Z,34.63
2018-06-30T12:38:21.836Z,32.15
2018-06-30T12:39:21.856Z,33.13
2018-06-30T12:40:21.872Z,34.22
2018-06-30T12:41:21.890Z,33.25
2018-06-30T12:42:21.908Z,33.15
2018-06-30T12:43:21.924Z,31.69
2018-06-30T12:44:21.941Z,32.48
2018-06-30T12:45:21.961Z,32.39
2018-06-30T12:46:21.974Z,31.49
2018-06-30T12:47:22.040Z,30.60
2018-06-30T12:48:22.010Z,31.69
2018-06-30T12:49:22.026Z,31.09
2018-06-30T12:50:22.042Z,31.18
2018-06-30T12:51:22.067Z,30.19
2018-06-30T12:52:22.278Z,32.07
2018-06-30T12:53:22.096Z,32.84
2018-06-30T12:54:22.159Z,32.23
2018-06-30T12:55:22.127Z,32.92
2018-06-30T12:56:22.143Z,32.69
2018-06-30T12:57:22.159Z,33.58
2018-06-30T12:58:22.175Z,33.38
2018-06-30T12:59:22.191Z,33.59
2018-06-30T13:00:22.212Z,33.10